createdAt,value
2022-11-13T00:01:39.768Z,2.98
2022-11-13T00:04:36.598Z,2.98
2022-11-13T00:07:33.438Z,2.95
2022-11-13T00:10:30.277Z,2.94
2022-11-13T00:13:30.324Z,2.81
2022-11-13T00:16:27.555Z,2.78
2022-11-13T00:19:24.383Z,2.76
2022-11-13T00:22:21.743Z,2.75
2022-11-13T00:25:18.554Z,2.72
2022-11-13T00:28:15.448Z,2.72
2022-11-13T00:31:15.437Z,2.71
2022-11-13T00:34:40.918Z,2.56
2022-11-13T00:37:29.128Z,2.76
2022-11-13T00:40:26.001Z,2.72
2022-11-13T00:43:23.086Z,2.71
2022-11-13T00:46:20.170Z,2.73
2022-11-13T00:49:17.715Z,2.61
2022-11-13T00:52:14.547Z,2.60
2022-11-13T00:55:11.367Z,2.64
2022-11-13T00:58:08.408Z,2.51
2022-11-13T01:01:13.432Z,2.75
2022-11-13T01:04:10.370Z,2.83
2022-11-13T01:07:07.298Z,2.61
2022-11-13T01:10:06.170Z,2.53
2022-11-13T01:13:03.006Z,2.42
2022-11-13T01:15:59.838Z,2.30
2022-11-13T01:18:57.295Z,2.07
2022-11-13T01:21:54.116Z,1.96
2022-11-13T01:24:51.016Z,2.12
2022-11-13T01:27:47.834Z,1.98
2022-11-13T01:30:44.679Z,2.03
2022-11-13T01:33:41.504Z,1.89
2022-11-13T01:36:38.327Z,1.54
2022-11-13T01:39:35.172Z,1.68
2022-11-13T01:42:34.913Z,1.74
2022-11-13T01:45:59.546Z,1.74
2022-11-13T01:49:07.937Z,1.60
2022-11-13T01:52:19.367Z,1.47
2022-11-13T01:55:19.370Z,1.49
2022-11-13T01:58:16.422Z,1.62
2022-11-13T02:01:13.250Z,1.57
2022-11-13T02:04:10.459Z,1.49
2022-11-13T02:07:16.417Z,1.39
2022-11-13T02:10:13.558Z,1.64
2022-11-13T02:13:12.403Z,1.57
2022-11-13T02:16:11.651Z,1.44
2022-11-13T02:19:27.321Z,1.37
2022-11-13T02:22:53.194Z,1.58
2022-11-13T02:25:54.385Z,1.35
2022-11-13T02:28:51.230Z,1.31
2022-11-13T02:31:48.281Z,1.40
2022-11-13T02:34:45.186Z,1.24
2022-11-13T02:37:42.635Z,1.20
2022-11-13T02:40:39.616Z,1.39
2022-11-13T02:43:36.459Z,1.43
2022-11-13T02:46:34.310Z,1.56
2022-11-13T02:49:31.346Z,1.44
2022-11-13T02:52:29.945Z,1.37
2022-11-13T02:55:26.857Z,1.24
2022-11-13T02:58:23.701Z,1.20
2022-11-13T03:01:20.650Z,1.32
2022-11-13T03:04:17.611Z,1.33
2022-11-13T03:07:15.145Z,1.38
2022-11-13T03:10:12.337Z,1.39
2022-11-13T03:13:09.204Z,1.39
2022-11-13T03:16:15.159Z,1.25
2022-11-13T03:19:12.016Z,1.31
2022-11-13T03:22:08.914Z,1.49
2022-11-13T03:25:10.439Z,1.47
2022-11-13T03:28:07.879Z,1.30
2022-11-13T03:31:05.222Z,1.02
2022-11-13T03:34:02.153Z,1.20
2022-11-13T03:36:58.982Z,1.17
2022-11-13T03:39:55.818Z,1.20
2022-11-13T03:42:52.661Z,1.09
2022-11-13T03:45:49.641Z,1.10
2022-11-13T03:48:46.485Z,0.88
2022-11-13T03:51:43.358Z,0.98
2022-11-13T03:54:40.219Z,0.89
2022-11-13T03:57:37.045Z,1.02
2022-11-13T04:00:34.463Z,1.00
2022-11-13T04:03:31.319Z,0.85
2022-11-13T04:06:28.183Z,0.87
2022-11-13T04:09:25.246Z,1.03
2022-11-13T04:12:22.114Z,0.98
2022-11-13T04:15:18.964Z,0.98
2022-11-13T04:18:15.777Z,1.03
2022-11-13T04:21:12.584Z,1.02
2022-11-13T04:24:09.506Z,1.00
2022-11-13T04:27:06.342Z,0.95
2022-11-13T04:30:05.475Z,0.92
2022-11-13T04:33:02.325Z,0.91
2022-11-13T04:35:59.137Z,0.84
2022-11-13T04:38:56.031Z,0.78
2022-11-13T04:42:11.464Z,0.80
2022-11-13T04:45:09.197Z,0.67
2022-11-13T04:48:06.070Z,0.66
2022-11-13T04:51:02.920Z,0.73
2022-11-13T04:53:59.773Z,0.83
2022-11-13T04:56:56.934Z,0.79
2022-11-13T04:59:53.823Z,0.81
2022-11-13T05:02:50.718Z,0.66
2022-11-13T05:05:47.574Z,0.60
2022-11-13T05:08:44.439Z,0.69
2022-11-13T05:11:41.270Z,0.63
2022-11-13T05:14:39.629Z,0.50
2022-11-13T05:17:36.453Z,0.48
2022-11-13T05:20:33.286Z,0.55
2022-11-13T05:23:30.142Z,0.73
2022-11-13T05:26:28.074Z,0.82
2022-11-13T05:29:25.325Z,0.84
2022-11-13T05:32:22.515Z,0.95
2022-11-13T05:35:19.389Z,0.90
2022-11-13T05:38:16.213Z,0.89
2022-11-13T05:41:22.411Z,0.85
2022-11-13T05:44:19.261Z,0.88
2022-11-13T05:47:16.136Z,0.81
2022-11-13T05:50:13.102Z,0.90
2022-11-13T05:53:09.934Z,0.69
2022-11-13T05:56:14.198Z,0.66
2022-11-13T05:59:11.063Z,0.55
2022-11-13T06:02:08.129Z,0.54
2022-11-13T06:05:05.548Z,0.58
2022-11-13T06:08:02.382Z,0.62
2022-11-13T06:11:05.562Z,0.84
2022-11-13T06:14:02.552Z,0.79
2022-11-13T06:16:59.490Z,0.84
2022-11-13T06:19:56.362Z,0.74
2022-11-13T06:22:53.217Z,0.73
2022-11-13T06:25:50.094Z,0.68
2022-11-13T06:28:47.707Z,0.69
2022-11-13T06:31:44.582Z,0.72
2022-11-13T06:34:41.700Z,0.77
2022-11-13T06:37:38.522Z,0.82
2022-11-13T06:40:38.881Z,0.84
2022-11-13T06:43:35.741Z,0.82
2022-11-13T06:46:32.788Z,0.89
2022-11-13T06:49:29.608Z,0.88
2022-11-13T06:52:26.477Z,0.95
2022-11-13T06:55:23.312Z,0.70
2022-11-13T06:58:20.645Z,0.69
2022-11-13T07:01:21.059Z,0.99
2022-11-13T07:04:17.917Z,1.10
2022-11-13T07:07:14.781Z,1.09
2022-11-13T07:10:11.653Z,1.09
2022-11-13T07:13:09.365Z,1.23
2022-11-13T07:16:16.416Z,1.35
2022-11-13T07:19:14.597Z,1.12
2022-11-13T07:22:12.049Z,1.01
2022-11-13T07:25:09.444Z,0.99
2022-11-13T07:28:06.300Z,0.94
2022-11-13T07:31:03.660Z,0.99
2022-11-13T07:34:00.521Z,0.87
2022-11-13T07:36:57.369Z,0.98
2022-11-13T07:39:54.245Z,0.91
2022-11-13T07:43:03.181Z,0.76
2022-11-13T07:46:00.865Z,0.79
2022-11-13T07:48:57.696Z,0.67
2022-11-13T07:51:54.542Z,0.78
2022-11-13T07:54:51.355Z,0.77
2022-11-13T07:57:48.157Z,0.76
2022-11-13T08:00:45.233Z,0.84
2022-11-13T08:03:42.121Z,0.91
2022-11-13T08:06:39.281Z,1.02
2022-11-13T08:09:36.244Z,1.05
2022-11-13T08:12:33.062Z,1.10
2022-11-13T08:15:30.944Z,1.22
2022-11-13T08:18:29.799Z,1.07
2022-11-13T08:21:26.837Z,1.24
2022-11-13T08:24:23.764Z,1.21
2022-11-13T08:27:22.337Z,1.26
2022-11-13T08:30:19.434Z,1.42
2022-11-13T08:33:16.811Z,1.53
2022-11-13T08:36:13.646Z,1.61
2022-11-13T08:39:10.550Z,1.69
2022-11-13T08:42:07.370Z,1.67
2022-11-13T08:45:05.230Z,1.71
2022-11-13T08:48:04.775Z,1.69
2022-11-13T08:51:01.797Z,1.75
2022-11-13T08:53:58.629Z,1.76
2022-11-13T08:56:57.285Z,1.73
2022-11-13T08:59:56.541Z,1.90
2022-11-13T09:03:01.247Z,1.94
2022-11-13T09:05:58.106Z,2.13
2022-11-13T09:08:55.043Z,1.86
2022-11-13T09:11:51.963Z,2.07
2022-11-13T09:14:48.903Z,2.11
2022-11-13T09:17:45.773Z,2.27
2022-11-13T09:20:42.647Z,2.28
2022-11-13T09:23:39.530Z,2.47
2022-11-13T09:26:36.407Z,2.42
2022-11-13T09:29:34.012Z,2.61
2022-11-13T09:32:31.241Z,3.96
2022-11-13T09:35:35.758Z,3.30
2022-11-13T09:38:32.701Z,2.96
2022-11-13T09:41:46.105Z,3.15
2022-11-13T09:45:07.514Z,3.17
2022-11-13T09:48:44.020Z,3.14
2022-11-13T09:51:41.362Z,3.51
2022-11-13T09:54:39.209Z,3.72
2022-11-13T09:57:51.228Z,4.64
2022-11-13T10:00:48.287Z,4.25
2022-11-13T10:04:03.410Z,4.39
2022-11-13T10:07:14.240Z,4.90
2022-11-13T10:10:20.479Z,5.49
2022-11-13T10:13:38.382Z,5.48
2022-11-13T10:16:54.037Z,5.53
2022-11-13T10:20:02.270Z,5.39
2022-11-13T10:23:15.071Z,9.62
2022-11-13T10:26:17.925Z,10.60
2022-11-13T10:29:18.609Z,12.38
2022-11-13T10:32:33.071Z,13.12
2022-11-13T10:35:39.682Z,13.01
2022-11-13T10:38:54.613Z,13.64
2022-11-13T10:41:54.551Z,13.58
2022-11-13T10:45:00.708Z,14.15
2022-11-13T10:48:04.270Z,14.15
2022-11-13T10:51:21.491Z,14.96
2022-11-13T10:54:31.622Z,15.04
2022-11-13T10:57:36.011Z,15.16
2022-11-13T11:00:36.943Z,15.54
2022-11-13T11:03:33.812Z,15.57
2022-11-13T11:07:12.588Z,15.95
2022-11-13T11:09:53.817Z,16.64
2022-11-13T11:13:07.043Z,15.84
2022-11-13T11:16:05.545Z,16.30
2022-11-13T11:19:08.704Z,16.33
2022-11-13T11:22:19.645Z,15.77
2022-11-13T11:25:40.989Z,16.25
2022-11-13T11:28:53.798Z,16.93
2022-11-13T11:32:11.936Z,16.67
2022-11-13T11:35:24.645Z,17.08
2022-11-13T11:38:42.430Z,16.52
2022-11-13T11:41:55.570Z,15.74
2022-11-13T11:45:34.105Z,15.74
2022-11-13T11:48:33.096Z,15.57
2022-11-13T11:51:57.875Z,15.76
2022-11-13T11:55:23.898Z,16.36
2022-11-13T11:59:01.856Z,16.29
2022-11-13T12:02:29.346Z,15.08
2022-11-13T12:06:02.013Z,15.23
2022-11-13T12:09:08.515Z,15.49
2022-11-13T12:12:45.633Z,15.12
2022-11-13T12:16:25.761Z,14.95
2022-11-13T12:19:56.593Z,15.05
2022-11-13T12:23:53.589Z,14.88
2022-11-13T12:27:14.903Z,14.53
2022-11-13T12:30:57.117Z,14.61
2022-11-13T12:34:24.753Z,14.39
2022-11-13T12:37:39.957Z,14.07
2022-11-13T12:40:51.590Z,14.19
2022-11-13T12:44:28.636Z,14.35
2022-11-13T12:47:26.021Z,14.26
2022-11-13T12:50:32.430Z,13.76
2022-11-13T12:53:47.870Z,13.81
2022-11-13T12:56:44.768Z,13.72
2022-11-13T12:59:55.087Z,13.68
2022-11-13T13:03:15.893Z,13.64
2022-11-13T13:06:37.994Z,13.31
2022-11-13T13:09:56.216Z,13.57
2022-11-13T13:13:28.640Z,13.96
2022-11-13T13:16:28.794Z,13.18
2022-11-13T13:19:33.674Z,13.19
2022-11-13T13:22:36.166Z,13.19
2022-11-13T13:25:35.646Z,13.28
2022-11-13T13:28:33.229Z,13.23
2022-11-13T13:32:07.419Z,12.76
2022-11-13T13:35:24.294Z,12.74
2022-11-13T13:38:49.372Z,12.75
2022-11-13T13:42:36.995Z,12.41
2022-11-13T13:45:58.033Z,12.45
2022-11-13T13:49:03.303Z,12.74
2022-11-13T13:52:00.186Z,12.74
2022-11-13T13:54:59.298Z,12.56
2022-11-13T13:57:57.205Z,12.42
2022-11-13T14:01:20.207Z,12.38
2022-11-13T14:04:23.513Z,12.74
2022-11-13T14:07:29.792Z,12.49
2022-11-13T14:10:28.633Z,12.80
2022-11-13T14:13:29.571Z,12.67
2022-11-13T14:16:26.415Z,13.04
2022-11-13T14:19:23.592Z,12.44
2022-11-13T14:22:21.232Z,12.49
2022-11-13T14:25:27.584Z,12.28
2022-11-13T14:28:31.316Z,12.18
2022-11-13T14:31:32.592Z,12.28
2022-11-13T14:34:31.018Z,12.01
2022-11-13T14:37:44.607Z,11.61
2022-11-13T14:40:48.859Z,12.07
2022-11-13T14:43:51.812Z,11.66
2022-11-13T14:47:06.517Z,11.82
2022-11-13T14:50:35.116Z,11.39
2022-11-13T14:53:36.043Z,11.39
2022-11-13T14:56:41.058Z,11.51
2022-11-13T14:59:38.963Z,11.19
2022-11-13T15:02:36.093Z,11.04
2022-11-13T15:05:33.324Z,10.98
2022-11-13T15:08:30.215Z,11.00
2022-11-13T15:11:27.516Z,10.84
2022-11-13T15:14:24.634Z,10.79
2022-11-13T15:17:23.415Z,10.52
2022-11-13T15:20:27.446Z,10.46
2022-11-13T15:23:26.465Z,10.40
2022-11-13T15:26:24.089Z,10.04
2022-11-13T15:29:21.048Z,9.76
2022-11-13T15:32:17.936Z,9.82
2022-11-13T15:35:18.047Z,9.33
2022-11-13T15:38:14.899Z,9.37
2022-11-13T15:41:18.533Z,9.09
2022-11-13T15:44:16.137Z,9.03
2022-11-13T15:47:36.512Z,8.82
2022-11-13T15:50:33.848Z,8.62
2022-11-13T15:53:31.294Z,8.89
2022-11-13T15:56:29.738Z,8.46
2022-11-13T15:59:26.590Z,8.43
2022-11-13T16:02:23.655Z,8.30
2022-11-13T16:05:23.615Z,8.28
2022-11-13T16:08:20.537Z,8.09
2022-11-13T16:11:20.362Z,8.02
2022-11-13T16:14:21.878Z,7.90
2022-11-13T16:17:21.493Z,7.79
2022-11-13T16:20:18.928Z,7.64
2022-11-13T16:23:17.559Z,7.41
2022-11-13T16:26:24.432Z,7.17
2022-11-13T16:29:23.972Z,7.38
2022-11-13T16:32:21.352Z,7.04
2022-11-13T16:35:20.823Z,7.00
2022-11-13T16:38:17.693Z,7.22
2022-11-13T16:41:16.668Z,7.15
2022-11-13T16:44:13.594Z,6.89
2022-11-13T16:47:36.817Z,6.75
2022-11-13T16:50:36.872Z,6.55
2022-11-13T16:53:34.064Z,6.34
2022-11-13T16:56:31.014Z,6.33
2022-11-13T16:59:27.841Z,5.97
2022-11-13T17:02:24.655Z,6.11
2022-11-13T17:05:23.571Z,6.10
2022-11-13T17:08:21.931Z,5.97
2022-11-13T17:11:19.591Z,5.84
2022-11-13T17:14:16.662Z,5.99
2022-11-13T17:17:17.009Z,5.60
2022-11-13T17:20:15.522Z,5.68
2022-11-13T17:23:18.672Z,5.88
2022-11-13T17:26:15.586Z,5.94
2022-11-13T17:29:12.703Z,5.84
2022-11-13T17:32:09.531Z,5.81
2022-11-13T17:35:06.733Z,5.68
2022-11-13T17:38:03.611Z,5.97
2022-11-13T17:41:09.681Z,5.56
2022-11-13T17:44:06.711Z,5.53
2022-11-13T17:47:03.542Z,5.54
2022-11-13T17:50:06.696Z,4.99
2022-11-13T17:53:04.443Z,4.98
2022-11-13T17:56:05.167Z,4.73
2022-11-13T17:59:02.076Z,4.83
2022-11-13T18:01:58.951Z,4.62
2022-11-13T18:04:59.038Z,4.28
2022-11-13T18:07:55.890Z,4.34
2022-11-13T18:10:53.148Z,4.32
2022-11-13T18:13:51.628Z,4.38
2022-11-13T18:16:48.629Z,4.51
2022-11-13T18:19:46.065Z,4.07
2022-11-13T18:22:42.877Z,4.12
2022-11-13T18:25:41.210Z,4.18
2022-11-13T18:28:39.813Z,4.16
2022-11-13T18:31:37.148Z,4.37
2022-11-13T18:34:34.158Z,4.72
2022-11-13T18:37:31.349Z,4.77
2022-11-13T18:40:28.249Z,4.99
2022-11-13T18:43:26.825Z,5.14
2022-11-13T18:46:23.948Z,4.97
2022-11-13T18:49:20.864Z,5.14
2022-11-13T18:52:17.767Z,5.24
2022-11-13T18:55:17.260Z,5.37
2022-11-13T18:58:14.071Z,5.22
2022-11-13T19:01:21.824Z,5.06
2022-11-13T19:04:23.867Z,5.17
2022-11-13T19:07:21.368Z,5.01
2022-11-13T19:10:18.421Z,4.94
2022-11-13T19:13:15.231Z,4.87
2022-11-13T19:16:16.086Z,4.68
2022-11-13T19:19:18.428Z,4.65
2022-11-13T19:22:15.259Z,4.44
2022-11-13T19:25:12.102Z,4.37
2022-11-13T19:28:08.950Z,4.47
2022-11-13T19:31:12.763Z,4.50
2022-11-13T19:34:11.006Z,4.55
2022-11-13T19:37:07.875Z,4.46
2022-11-13T19:40:05.338Z,4.50
2022-11-13T19:43:02.138Z,4.50
2022-11-13T19:46:07.675Z,4.60
2022-11-13T19:49:04.673Z,4.55
2022-11-13T19:52:01.537Z,4.34
2022-11-13T19:54:58.399Z,4.28
2022-11-13T19:57:55.235Z,4.42
2022-11-13T20:00:53.375Z,4.39
2022-11-13T20:03:59.052Z,4.36
2022-11-13T20:06:55.947Z,4.26
2022-11-13T20:09:52.822Z,4.14
2022-11-13T20:12:49.653Z,4.24
2022-11-13T20:15:54.526Z,3.97
2022-11-13T20:18:52.062Z,3.62
2022-11-13T20:21:49.068Z,3.51
2022-11-13T20:24:45.871Z,3.35
2022-11-13T20:27:47.170Z,3.39
2022-11-13T20:30:44.525Z,3.61
2022-11-13T20:33:41.641Z,3.55
2022-11-13T20:36:39.693Z,3.57
2022-11-13T20:39:36.568Z,3.29
2022-11-13T20:42:33.407Z,4.00
2022-11-13T20:45:30.271Z,3.75
2022-11-13T20:48:27.319Z,3.77
2022-11-13T20:51:28.720Z,3.61
2022-11-13T20:54:25.551Z,3.24
2022-11-13T20:57:22.465Z,3.30
2022-11-13T21:00:19.387Z,3.38
2022-11-13T21:03:16.269Z,3.37
2022-11-13T21:06:20.908Z,3.52
2022-11-13T21:09:17.774Z,3.37
2022-11-13T21:12:14.584Z,3.34
2022-11-13T21:15:11.440Z,3.36
2022-11-13T21:18:08.727Z,3.28
2022-11-13T21:21:13.738Z,3.01
2022-11-13T21:24:10.600Z,3.11
2022-11-13T21:27:07.436Z,2.96
2022-11-13T21:30:04.841Z,2.98
2022-11-13T21:33:01.686Z,3.06
2022-11-13T21:36:08.360Z,3.00
2022-11-13T21:39:05.203Z,2.97
2022-11-13T21:42:02.036Z,2.83
2022-11-13T21:44:59.432Z,2.69
2022-11-13T21:47:56.263Z,2.86
2022-11-13T21:50:53.155Z,2.77
2022-11-13T21:53:50.232Z,2.67
2022-11-13T21:56:47.097Z,2.93
2022-11-13T21:59:43.919Z,2.99
2022-11-13T22:02:40.790Z,2.60
2022-11-13T22:05:38.101Z,2.52
2022-11-13T22:08:34.995Z,2.51
2022-11-13T22:11:35.765Z,2.29
2022-11-13T22:14:32.532Z,2.22
2022-11-13T22:17:29.370Z,2.17
2022-11-13T22:20:26.363Z,2.14
2022-11-13T22:23:23.319Z,2.16
2022-11-13T22:26:22.896Z,2.14
2022-11-13T22:29:19.722Z,2.06
2022-11-13T22:32:16.542Z,1.96
2022-11-13T22:35:13.460Z,2.00
2022-11-13T22:38:11.355Z,1.82
2022-11-13T22:41:23.371Z,1.85
2022-11-13T22:44:20.848Z,1.94
2022-11-13T22:47:17.671Z,1.89
2022-11-13T22:50:14.636Z,1.86
2022-11-13T22:53:14.591Z,1.73
2022-11-13T22:56:13.947Z,1.71
2022-11-13T22:59:12.711Z,1.59
2022-11-13T23:02:09.612Z,1.77
2022-11-13T23:05:07.443Z,1.91
2022-11-13T23:08:04.486Z,1.93
2022-11-13T23:11:01.298Z,1.83
2022-11-13T23:14:00.130Z,1.94
2022-11-13T23:16:56.955Z,1.94
2022-11-13T23:19:53.775Z,1.77
2022-11-13T23:22:50.586Z,1.88
2022-11-13T23:25:47.426Z,1.87
2022-11-13T23:28:44.768Z,2.00
2022-11-13T23:31:41.595Z,1.91
2022-11-13T23:34:58.714Z,1.85
2022-11-13T23:37:55.224Z,1.78
2022-11-13T23:40:57.690Z,1.77
2022-11-13T23:44:08.219Z,1.87
2022-11-13T23:47:05.899Z,1.83
2022-11-13T23:50:02.881Z,2.11
2022-11-13T23:52:59.709Z,1.83
2022-11-13T23:55:56.906Z,1.65
2022-11-13T23:58:53.733Z,1.68
